Detall de PIREP

Printer-friendly versionPDF version

[2017/07/06 11:31:00]
Flight IATA:CT0001
Pilot Number:042
Company ICAO:CAT
Aircraft Type:BE58/A
PAX:3
Departing Airport: LEIB
Destination Airport: LEPA
Alternate Airport:LEMH
Online: VATSIM
Route:DCT
Flight Level:F030
No Slew and time accel
No pause
Crash detect
Detect pilot in Cockpit between each 30 and 45 minutes
11:31 Zero fuel Weight: 4591 Lbs, Fuel Weight: 850 Lbs
11:31 VATSIM:LEIB 061100Z 08016KT CAVOK 29/21 Q1016 NOSIG
11:31 VATSIM:LEPA 061100Z 21012KT 9999 FEW025 31/21 Q1017 NOSIG
11:32 Parking Brakes off
11:37 Take-off
11:37 Take off Weight: 5438 Lbs
11:37 Wind: 000º @ 000 Knots Heading: 238º
11:37 POS N38º 52´ 23´´ E001º 22´ 27´´
11:37 Flaps:1 at 95 Knots
11:37 Flaps:0 at 89 Knots
11:40 TOC
11:40 Fuel Weight: 835 Lb
11:52 Wind:270º@020 Knots Heading: 050º Ground Speed: 164 Knots Altitude 8057 ft
12:04 TOD
12:04 Fuel Weight: 763 Lb
12:04 Flaps:1 at163 Knots
12:06 Flaps:2 at 134 Knots
12:07 Wind:000º@000 Knots Heading: 064º Ground Speed: 130 Knots Altitude 442 ft
12:07 TouchDown:Rate -300 ft/min Speed: 70 Knots
12:08 VATSIM:LEPA 061100Z 21012KT 9999 FEW025 31/21 Q1017 NOSIG
12:08 Land
12:08 Wind:000º@000 Knots
12:08 Heading: 110º
12:08 Flight Duration: 00:31
12:08 Landing Weight: 5347 Lbs
12:08 POS N39º 33´ 18´´ E002º 43´ 39´´
12:09 Parking brakes on
12:09 Block to Block Duration: 00:37
12:09 Final Fuel: 753 Lbls
12:09 Spent Fuel: 97 Lbls
12:09 Flight Length: 78 NM
12:09 TOD Land Length: 08 NM

Exportar CSV

Powered by Drupal - Modified by Danger4k